Thrali, Washington
Current Conditions -  °F | °C
As of 2:04 AM on Sunday 21 Dec 2014 (Local Time) from KELN Reporting Station
Light Rain Light Rain  
Wind Chill: 40°   Ceiling: 4900
Heat Index: 40°   Visibility: 3mi
Dew Point: 37°   Wind: 0mph
Humidity: 89%   Direction: NA
Pressure: 29.57"   Gusts: NA
Location:  47.0155°N, 120.311°W
Report Text: KELN 211004Z AUTO 00000KT 3SM -RA BR BKN049 OVC070 04/03 A2957 RMK AO2 RAB00 P0000 T00440028
Loading
Personal Weather Stations






























Interactive Weather Map New forecast layout! Learn more

10-Day Weather Forecast

Advertisements
Track Severe Weather on mobile